Time;durP1;ratioP1;P1;durP2;ratioP2;P2;SDS_P1;SDS_P2;PMS_P1;PMS_P2;Temp;Humidity;BMP_temperature;BMP_pressure;BME280_temperature;BME280_humidity;BME280_pressure;Samples;Min_cycle;Max_cycle;Signal;HPM_P1;HPM_P2
2022/06/30 00:00:11;;;;;;;1.13;1.07;;;;;;;21.62;44.30;101147.22;5024195;27;97051;-49
2022/06/30 00:02:36;;;;;;;1.20;0.90;;;;;;;21.58;44.31;101155.22;5023467;27;97242;-49
2022/06/30 00:05:02;;;;;;;1.33;1.23;;;;;;;21.53;44.38;101151.31;5025468;27;96870;-49
2022/06/30 00:07:27;;;;;;;1.30;1.20;;;;;;;21.49;44.50;101150.16;5028807;27;96936;-50
2022/06/30 00:09:53;;;;;;;1.20;1.10;;;;;;;21.47;44.57;101153.50;5023958;27;101082;-49
2022/06/30 00:12:18;;;;;;;0.90;0.90;;;;;;;21.41;44.57;101149.38;5024688;27;96907;-48
2022/06/30 00:14:43;;;;;;;1.27;1.17;;;;;;;21.39;44.71;101149.19;5020930;27;96704;-49
2022/06/30 00:17:09;;;;;;;1.07;1.00;;;;;;;21.41;44.62;101150.16;5021804;27;96974;-49
2022/06/30 00:19:35;;;;;;;2.40;1.17;;;;;;;21.41;44.62;101144.53;5026090;27;96993;-49
2022/06/30 00:22:00;;;;;;;1.40;1.30;;;;;;;21.34;44.67;101145.25;5020522;27;97914;-49
2022/06/30 00:24:26;;;;;;;1.07;0.97;;;;;;;21.29;44.75;101145.44;5022467;27;97470;-48
2022/06/30 00:26:51;;;;;;;1.90;1.20;;;;;;;21.23;44.89;101142.09;5026660;27;96984;-49
2022/06/30 00:29:16;;;;;;;1.30;0.90;;;;;;;21.18;45.17;101146.53;5026794;27;96786;-49
2022/06/30 00:31:41;;;;;;;1.40;1.30;;;;;;;21.20;45.06;101145.97;5012973;27;96658;-49
2022/06/30 00:34:07;;;;;;;1.53;1.10;;;;;;;21.25;45.04;101148.59;5016866;27;101968;-49
2022/06/30 00:36:32;;;;;;;1.63;1.30;;;;;;;21.24;45.00;101146.34;5011721;27;97326;-50
2022/06/30 00:38:57;;;;;;;1.03;1.03;;;;;;;21.21;45.12;101134.22;5025951;27;97013;-49
2022/06/30 00:41:23;;;;;;;1.00;1.00;;;;;;;21.23;45.25;101133.69;5017721;27;112209;-49
2022/06/30 00:43:49;;;;;;;1.20;1.17;;;;;;;21.23;45.18;101128.81;5016424;27;97241;-49
2022/06/30 00:46:15;;;;;;;1.07;0.90;;;;;;;21.22;45.23;101129.38;5023858;27;97186;-49
2022/06/30 00:48:42;;;;;;;1.10;1.10;;;;;;;21.18;45.22;101115.75;5023455;27;96626;-49
2022/06/30 00:51:07;;;;;;;2.07;1.10;;;;;;;21.17;45.26;101133.84;5028107;27;98727;-49
2022/06/30 00:53:37;;;;;;;1.17;1.17;;;;;;;21.15;45.43;101128.03;5022096;27;97234;-48
2022/06/30 00:56:07;;;;;;;1.10;1.10;;;;;;;21.11;45.45;101124.88;5022406;27;97063;-49
2022/06/30 00:58:37;;;;;;;2.13;1.00;;;;;;;21.11;45.62;101121.31;5019666;27;96831;-49
2022/06/30 01:01:04;;;;;;;1.00;1.00;;;;;;;21.03;45.63;101121.31;5020902;27;96758;-49
2022/06/30 01:03:32;;;;;;;2.80;1.30;;;;;;;21.04;45.66;101110.84;5022562;27;97074;-49
2022/06/30 01:06:02;;;;;;;2.50;1.10;;;;;;;21.04;45.74;101110.84;5025619;27;97252;-49
2022/06/30 01:08:32;;;;;;;1.10;1.00;;;;;;;21.02;45.73;101113.41;5022167;27;96885;-49
2022/06/30 01:13:43;;;;;;;1.23;1.13;;;;;;;20.88;45.75;101107.22;5025668;27;96902;-49
2022/06/30 01:16:10;;;;;;;3.17;1.63;;;;;;;20.86;45.74;101107.00;5023270;27;96869;-49
2022/06/30 01:18:36;;;;;;;1.27;1.17;;;;;;;20.85;45.99;101109.09;5025954;27;96835;-49
2022/06/30 01:21:02;;;;;;;1.37;1.27;;;;;;;20.83;46.01;101106.09;5020510;27;97770;-49
2022/06/30 01:23:27;;;;;;;1.67;1.30;;;;;;;20.82;46.10;101107.38;5018564;27;96882;-49
2022/06/30 01:25:53;;;;;;;2.07;1.40;;;;;;;20.80;45.89;101110.00;5023099;27;96895;-49
2022/06/30 01:28:19;;;;;;;1.40;1.30;;;;;;;20.73;46.05;101107.91;5024265;27;97015;-50
2022/06/30 01:30:44;;;;;;;1.27;1.10;;;;;;;20.71;46.14;101102.09;5024717;27;97396;-49
2022/06/30 01:33:09;;;;;;;1.13;1.03;;;;;;;20.71;46.16;101104.16;5023900;27;97428;-49
2022/06/30 01:35:35;;;;;;;1.73;1.50;;;;;;;20.64;46.08;101097.22;5022621;27;96790;-49
2022/06/30 01:38:02;;;;;;;1.33;1.23;;;;;;;20.58;46.14;101098.69;5026598;27;96746;-50
2022/06/30 01:40:35;;;;;;;1.40;1.30;;;;;;;20.57;46.68;101103.56;5028213;27;97893;-49
2022/06/30 01:43:04;;;;;;;1.53;1.30;;;;;;;20.53;46.34;101105.94;5023721;27;100168;-50
2022/06/30 01:45:29;;;;;;;1.50;1.40;;;;;;;20.49;46.42;101101.97;5031430;27;96928;-49
2022/06/30 01:47:55;;;;;;;5.10;1.30;;;;;;;20.43;46.49;101102.16;5029442;27;96893;-48
2022/06/30 01:50:25;;;;;;;1.40;1.30;;;;;;;20.40;46.65;101100.44;5031554;27;97319;-49
2022/06/30 01:52:50;;;;;;;1.37;1.30;;;;;;;20.31;46.80;101106.56;5030654;27;98548;-48
2022/06/30 01:55:16;;;;;;;1.43;1.33;;;;;;;20.23;46.89;101099.41;5026654;27;96963;-49
2022/06/30 01:57:41;;;;;;;1.10;1.10;;;;;;;20.17;46.89;101094.69;5030808;27;96815;-48
2022/06/30 02:00:11;;;;;;;1.10;1.10;;;;;;;20.12;46.92;101095.59;5029903;27;96870;-49
2022/06/30 02:02:37;;;;;;;1.30;1.20;;;;;;;20.09;47.10;101098.75;5027958;27;97244;-51
2022/06/30 02:05:03;;;;;;;3.57;1.43;;;;;;;20.06;46.99;101099.84;5029619;27;97162;-49
2022/06/30 02:07:29;;;;;;;1.50;1.40;;;;;;;20.06;47.19;101094.25;5021015;27;97323;-49
2022/06/30 02:09:55;;;;;;;1.20;1.10;;;;;;;20.06;47.43;101095.00;5031158;27;98011;-50
2022/06/30 02:15:08;;;;;;;1.43;1.00;;;;;;;20.03;47.28;101092.53;5045876;27;97173;-49
2022/06/30 02:17:34;;;;;;;1.50;1.40;;;;;;;20.01;47.24;101087.50;5047619;27;96987;-49
2022/06/30 02:20:00;;;;;;;2.23;1.53;;;;;;;20.02;46.96;101093.84;5034335;27;96876;-49
2022/06/30 02:22:26;;;;;;;1.70;1.60;;;;;;;19.93;47.06;101086.72;5030998;27;97104;-49
2022/06/30 02:24:51;;;;;;;2.07;1.90;;;;;;;19.88;47.31;101098.75;5029914;27;97286;-48
2022/06/30 02:27:20;;;;;;;1.63;1.53;;;;;;;19.84;47.49;101092.03;5025726;27;97097;-49
2022/06/30 02:29:45;;;;;;;0.90;0.90;;;;;;;19.81;47.56;101082.69;5024573;27;97053;-50
2022/06/30 02:32:11;;;;;;;1.60;1.50;;;;;;;19.78;47.81;101077.47;5027851;27;97120;-49
2022/06/30 02:34:36;;;;;;;2.40;1.67;;;;;;;19.76;47.48;101074.47;5028095;27;98946;-49
2022/06/30 02:37:01;;;;;;;1.43;1.37;;;;;;;19.74;47.77;101085.44;5026546;27;96726;-49
2022/06/30 02:39:27;;;;;;;1.43;1.33;;;;;;;19.72;47.80;101080.41;5030675;27;97562;-49
2022/06/30 02:41:52;;;;;;;1.50;1.40;;;;;;;19.72;47.72;101074.81;5025036;27;97342;-48
2022/06/30 02:44:17;;;;;;;5.30;1.40;;;;;;;19.71;47.75;101073.31;5027435;27;96953;-49
2022/06/30 02:46:43;;;;;;;2.13;1.43;;;;;;;19.73;47.92;101069.97;5020271;27;97565;-49
2022/06/30 02:49:08;;;;;;;1.73;1.63;;;;;;;19.69;47.86;101064.72;5030327;27;97354;-49
2022/06/30 02:51:33;;;;;;;1.70;1.30;;;;;;;19.66;48.01;101068.59;5017703;27;97112;-49
2022/06/30 02:53:59;;;;;;;1.63;1.53;;;;;;;19.66;48.18;101065.09;5026670;27;96895;-48
2022/06/30 02:56:24;;;;;;;1.60;1.50;;;;;;;19.71;48.26;101064.94;5020554;27;97011;-48
2022/06/30 02:58:50;;;;;;;1.70;1.60;;;;;;;19.74;48.05;101068.69;5016064;27;97322;-48
2022/06/30 03:01:15;;;;;;;1.43;1.33;;;;;;;19.76;48.01;101077.25;5020262;27;96904;-49
2022/06/30 03:03:40;;;;;;;1.80;1.70;;;;;;;19.77;47.99;101073.16;5023560;27;96849;-52
2022/06/30 03:06:06;;;;;;;1.50;1.40;;;;;;;19.74;47.96;101072.22;5028923;27;96897;-49
2022/06/30 03:08:31;;;;;;;1.77;1.67;;;;;;;19.71;48.07;101064.94;5018913;27;98073;-48
2022/06/30 03:10:57;;;;;;;1.80;1.70;;;;;;;19.73;48.33;101072.75;5026409;27;98180;-49
2022/06/30 03:13:22;;;;;;;2.90;1.60;;;;;;;19.73;47.99;101067.19;5017003;27;97159;-48
2022/06/30 03:15:49;;;;;;;1.77;1.67;;;;;;;19.69;48.23;101073.13;5015547;27;97181;-48
2022/06/30 03:18:15;;;;;;;1.33;1.33;;;;;;;19.68;48.35;101076.47;5017331;27;97314;-48
2022/06/30 03:20:40;;;;;;;1.60;1.50;;;;;;;19.71;48.29;101075.34;5019420;27;97299;-48
2022/06/30 03:23:06;;;;;;;1.60;1.50;;;;;;;19.72;48.26;101071.28;5018260;27;97059;-48
2022/06/30 03:25:31;;;;;;;1.60;1.47;;;;;;;19.71;48.25;101070.53;5022105;27;96980;-48
2022/06/30 03:27:56;;;;;;;1.60;1.50;;;;;;;19.66;48.28;101079.03;5019921;27;97211;-48
2022/06/30 03:30:22;;;;;;;1.57;1.47;;;;;;;19.56;48.52;101075.97;5018673;27;97079;-48
2022/06/30 03:32:47;;;;;;;1.60;1.50;;;;;;;19.53;48.61;101067.94;5016487;27;97368;-49
2022/06/30 03:35:12;;;;;;;1.53;1.33;;;;;;;19.53;48.81;101071.47;5023659;27;97337;-50
2022/06/30 03:37:38;;;;;;;2.00;1.90;;;;;;;19.53;48.85;101065.16;5029422;27;96940;-48
2022/06/30 03:40:04;;;;;;;2.10;2.00;;;;;;;19.50;48.97;101061.41;5028676;27;97263;-49
2022/06/30 03:42:29;;;;;;;1.83;1.50;;;;;;;19.49;48.98;101064.72;5019593;27;97354;-48
2022/06/30 03:44:54;;;;;;;2.10;1.70;;;;;;;19.53;48.88;101067.94;5019359;27;96991;-48
2022/06/30 03:47:20;;;;;;;3.37;1.60;;;;;;;19.56;48.90;101066.84;5015766;27;97177;-48
2022/06/30 03:49:45;;;;;;;1.60;1.53;;;;;;;19.58;48.76;101050.31;5011307;27;97250;-47
2022/06/30 03:52:10;;;;;;;1.53;1.43;;;;;;;19.57;48.82;101055.13;5019748;27;96909;-48
2022/06/30 03:54:36;;;;;;;1.70;1.60;;;;;;;19.52;48.88;101046.91;5015923;27;97335;-48
2022/06/30 03:57:01;;;;;;;1.50;1.40;;;;;;;19.44;49.18;101047.59;5017785;27;98055;-49
2022/06/30 03:59:27;;;;;;;1.50;1.40;;;;;;;19.37;49.22;101042.66;5013058;27;97218;-48
2022/06/30 04:01:52;;;;;;;1.57;1.47;;;;;;;19.34;49.18;101046.56;5009182;27;97269;-49
2022/06/30 04:04:17;;;;;;;1.60;1.50;;;;;;;19.34;49.27;101049.34;5026353;27;97121;-48
2022/06/30 04:06:43;;;;;;;3.73;1.50;;;;;;;19.29;49.62;101039.03;5020889;27;97238;-49
2022/06/30 04:09:08;;;;;;;1.90;1.80;;;;;;;19.22;49.79;101048.09;5026580;27;97439;-49
2022/06/30 04:11:34;;;;;;;1.73;1.63;;;;;;;19.21;49.57;101041.03;5024429;27;96999;-48
2022/06/30 04:13:59;;;;;;;2.07;1.70;;;;;;;19.20;49.85;101033.94;5021301;27;96792;-48
2022/06/30 04:16:24;;;;;;;1.80;1.80;;;;;;;19.24;49.95;101044.78;5018990;27;98016;-48
2022/06/30 04:18:50;;;;;;;1.43;1.43;;;;;;;19.28;49.49;101042.38;5024249;27;97890;-49
2022/06/30 04:21:16;;;;;;;2.00;1.80;;;;;;;19.31;49.52;101039.25;5026403;27;97392;-48
2022/06/30 04:23:43;;;;;;;1.90;1.80;;;;;;;19.34;49.75;101046.56;5026090;27;97112;-48
2022/06/30 04:26:09;;;;;;;1.67;1.60;;;;;;;19.37;49.75;101058.69;5024355;27;97405;-49
2022/06/30 04:28:34;;;;;;;2.50;1.73;;;;;;;19.38;49.84;101057.38;5019147;27;97145;-48
2022/06/30 04:33:43;;;;;;;1.90;1.60;;;;;;;19.45;49.86;101056.72;5023289;27;96717;-49
2022/06/30 04:36:09;;;;;;;1.93;1.83;;;;;;;19.47;49.62;101048.53;5028340;27;99811;-48
2022/06/30 04:38:34;;;;;;;2.13;1.87;;;;;;;19.47;50.04;101047.78;5023333;27;97022;-49
2022/06/30 04:43:43;;;;;;;1.70;1.60;;;;;;;19.49;50.02;101043.16;5042568;27;97101;-48
2022/06/30 04:46:09;;;;;;;2.90;1.90;;;;;;;19.54;49.99;101049.91;5024439;27;97177;-47
2022/06/30 04:48:34;;;;;;;2.37;2.13;;;;;;;19.56;50.26;101045.28;5014063;27;97124;-48
2022/06/30 04:50:59;;;;;;;1.80;1.70;;;;;;;19.59;50.22;101051.81;5022381;27;97045;-48
2022/06/30 04:53:25;;;;;;;1.83;1.50;;;;;;;19.66;50.29;101051.84;5021097;27;97476;-48
2022/06/30 04:55:50;;;;;;;1.47;1.37;;;;;;;19.70;50.35;101051.53;5024667;27;96700;-49
2022/06/30 04:58:15;;;;;;;2.10;1.80;;;;;;;19.72;50.11;101038.53;5025107;27;97649;-48
2022/06/30 05:00:41;;;;;;;1.87;1.53;;;;;;;19.77;50.23;101037.63;5020445;27;97354;-48
2022/06/30 05:03:06;;;;;;;1.70;1.60;;;;;;;19.81;50.36;101045.66;5021441;27;96937;-48
2022/06/30 05:05:31;;;;;;;1.77;1.67;;;;;;;19.86;50.30;101045.50;5018385;27;97475;-50
2022/06/30 05:07:57;;;;;;;1.93;1.60;;;;;;;19.90;50.56;101045.91;5018759;27;97116;-48
2022/06/30 05:10:22;;;;;;;1.73;1.53;;;;;;;19.96;50.54;101046.50;5021813;27;96782;-48
2022/06/30 05:12:47;;;;;;;1.50;1.50;;;;;;;20.00;50.49;101044.13;5022861;27;97023;-49
2022/06/30 05:15:13;;;;;;;1.90;1.80;;;;;;;20.07;50.52;101046.19;5027396;27;97548;-48
2022/06/30 05:17:38;;;;;;;1.47;1.37;;;;;;;20.15;50.46;101052.59;5027542;27;97199;-48
2022/06/30 05:20:04;;;;;;;1.67;1.50;;;;;;;20.25;50.83;101054.91;5030362;27;97265;-47
2022/06/30 05:22:30;;;;;;;1.83;1.60;;;;;;;20.34;50.55;101055.16;5018384;27;97837;-48
2022/06/30 05:27:39;;;;;;;3.43;1.73;;;;;;;20.54;50.54;101053.56;5026443;27;101879;-49
2022/06/30 05:30:05;;;;;;;2.20;2.00;;;;;;;20.67;50.57;101059.03;5020354;27;97188;-48
2022/06/30 05:32:30;;;;;;;1.50;1.40;;;;;;;20.76;50.53;101055.72;5024499;27;96711;-48
2022/06/30 05:34:56;;;;;;;2.20;2.10;;;;;;;20.83;50.54;101050.16;5022786;27;98239;-48
2022/06/30 05:37:21;;;;;;;1.60;1.50;;;;;;;20.96;50.56;101054.84;5026238;27;97383;-48
2022/06/30 05:39:46;;;;;;;1.80;1.70;;;;;;;21.05;50.53;101056.38;5021767;27;97139;-51
2022/06/30 05:42:12;;;;;;;1.67;1.57;;;;;;;21.12;50.53;101058.47;5015709;27;97258;-48
2022/06/30 05:44:37;;;;;;;2.87;2.20;;;;;;;21.23;50.48;101052.53;5017635;27;97538;-48
2022/06/30 05:47:03;;;;;;;4.20;2.20;;;;;;;21.33;50.43;101054.22;5015846;28;97024;-51
2022/06/30 05:49:28;;;;;;;1.90;1.80;;;;;;;21.43;50.36;101048.78;5021898;27;97146;-49
2022/06/30 05:51:53;;;;;;;2.57;2.37;;;;;;;21.54;50.33;101051.22;5020879;27;97061;-48
2022/06/30 05:54:19;;;;;;;2.30;2.20;;;;;;;21.65;50.07;101056.47;5022284;27;97336;-48
2022/06/30 05:56:45;;;;;;;1.83;1.73;;;;;;;21.76;50.12;101056.09;5021149;27;97498;-48
2022/06/30 05:59:10;;;;;;;2.43;2.03;;;;;;;21.88;50.16;101054.44;5027231;27;97477;-48
2022/06/30 06:01:36;;;;;;;2.00;1.90;;;;;;;21.97;49.98;101053.88;5026843;27;97107;-49
2022/06/30 06:04:03;;;;;;;3.00;2.50;;;;;;;22.06;49.91;101050.47;5025737;27;97367;-49
2022/06/30 06:06:29;;;;;;;2.30;2.20;;;;;;;22.19;49.72;101060.75;5024535;27;97132;-49
2022/06/30 06:08:54;;;;;;;2.67;2.57;;;;;;;22.29;49.74;101056.78;5026659;27;97590;-48
2022/06/30 06:11:19;;;;;;;3.77;2.57;;;;;;;22.42;49.69;101063.47;5018701;27;97135;-48
2022/06/30 06:13:45;;;;;;;2.00;1.90;;;;;;;22.54;49.64;101058.97;5019029;27;96901;-48
2022/06/30 06:16:10;;;;;;;2.10;1.90;;;;;;;22.60;49.51;101062.31;5019566;27;102416;-48
2022/06/30 06:18:36;;;;;;;2.57;2.13;;;;;;;22.70;49.51;101054.78;5025240;27;97047;-49
2022/06/30 06:21:01;;;;;;;2.10;2.00;;;;;;;22.78;49.49;101055.53;5025056;27;97200;-49
2022/06/30 06:23:26;;;;;;;2.50;2.30;;;;;;;22.86;49.17;101059.03;5019190;27;107519;-49
2022/06/30 06:25:52;;;;;;;2.43;2.27;;;;;;;22.98;49.20;101058.03;5019095;27;97589;-49
2022/06/30 06:31:02;;;;;;;1.97;1.87;;;;;;;23.19;49.06;101054.16;5021788;27;97226;-48
2022/06/30 06:33:27;;;;;;;2.30;2.10;;;;;;;23.29;48.88;101055.78;5015783;27;97392;-48
2022/06/30 06:35:52;;;;;;;2.13;2.03;;;;;;;23.37;48.77;101056.47;5021169;27;97276;-48
2022/06/30 06:38:18;;;;;;;3.60;2.20;;;;;;;23.44;48.87;101055.69;5024654;27;96919;-49
2022/06/30 06:40:44;;;;;;;2.20;2.10;;;;;;;23.51;48.91;101054.91;5027576;27;98168;-49
2022/06/30 06:43:09;;;;;;;2.43;2.33;;;;;;;23.58;48.89;101051.28;5016909;27;97073;-49
2022/06/30 06:45:34;;;;;;;13.73;2.03;;;;;;;23.66;48.63;101051.97;5023883;27;98864;-48
2022/06/30 06:47:59;;;;;;;1.90;1.80;;;;;;;23.74;48.81;101057.53;5017215;27;97076;-49
2022/06/30 06:50:25;;;;;;;2.23;2.03;;;;;;;23.82;48.49;101053.31;5021152;27;96713;-49
2022/06/30 06:52:50;;;;;;;2.00;1.90;;;;;;;23.92;48.71;101055.50;5027864;27;97208;-49
2022/06/30 06:55:17;;;;;;;2.30;2.10;;;;;;;24.02;48.38;101056.31;5030426;27;96763;-48
2022/06/30 06:57:43;;;;;;;2.60;2.40;;;;;;;24.11;48.61;101050.09;5018526;22;97167;-50
2022/06/30 07:00:12;;;;;;;2.27;2.17;;;;;;;24.22;48.39;101061.56;5003397;28;97159;-50
2022/06/30 07:02:38;;;;;;;2.83;2.63;;;;;;;24.33;48.16;101051.91;4999524;28;96856;-55
2022/06/30 07:05:04;;;;;;;2.70;2.50;;;;;;;24.45;48.17;101058.50;5001413;28;97290;-50
2022/06/30 07:07:29;;;;;;;2.47;2.37;;;;;;;24.58;48.16;101046.91;4998405;28;97066;-50
2022/06/30 07:09:54;;;;;;;2.43;2.33;;;;;;;24.70;47.83;101045.09;4985130;28;96786;-50
2022/06/30 07:12:20;;;;;;;2.33;2.23;;;;;;;24.79;47.75;101044.41;4997298;28;97238;-51
2022/06/30 07:14:45;;;;;;;3.33;2.50;;;;;;;24.88;47.62;101045.81;4998032;28;97430;-51
2022/06/30 07:17:10;;;;;;;2.07;1.97;;;;;;;24.98;47.59;101038.91;4996224;28;97263;-50
2022/06/30 07:19:36;;;;;;;2.57;2.47;;;;;;;25.09;47.49;101043.25;5000749;28;96963;-51
2022/06/30 07:22:01;;;;;;;3.07;2.87;;;;;;;25.21;47.26;101036.50;4994267;28;97756;-51
2022/06/30 07:24:27;;;;;;;2.67;2.50;;;;;;;25.29;47.20;101037.09;5000892;28;98853;-51
2022/06/30 07:26:52;;;;;;;2.90;2.47;;;;;;;25.37;46.92;101039.06;4981531;28;96943;-51
2022/06/30 07:29:18;;;;;;;2.90;2.70;;;;;;;25.45;46.91;101028.44;4982559;28;97439;-51
2022/06/30 07:31:43;;;;;;;2.90;2.70;;;;;;;25.54;47.09;101024.91;5001052;28;98659;-51
2022/06/30 07:34:09;;;;;;;2.60;2.40;;;;;;;25.61;47.00;101024.81;4998033;28;97164;-51
2022/06/30 07:36:35;;;;;;;2.93;2.40;;;;;;;25.69;46.77;101030.28;5001483;28;97076;-51
2022/06/30 07:39:01;;;;;;;3.97;2.63;;;;;;;25.77;46.56;101028.09;4999979;28;96977;-50
2022/06/30 07:41:28;;;;;;;2.63;2.43;;;;;;;25.86;46.56;101033.03;4997235;28;98774;-51
2022/06/30 07:43:53;;;;;;;2.70;2.50;;;;;;;25.96;46.59;101030.94;4997714;28;98237;-51
2022/06/30 07:46:19;;;;;;;2.53;2.33;;;;;;;26.04;46.21;101025.91;4999135;28;96962;-51
2022/06/30 07:48:45;;;;;;;3.03;2.80;;;;;;;26.10;46.11;101022.84;5002912;28;97214;-51
2022/06/30 07:51:10;;;;;;;2.80;2.67;;;;;;;26.17;46.08;101019.84;5002726;28;97056;-51
2022/06/30 07:53:35;;;;;;;4.53;2.93;;;;;;;26.26;45.91;101013.47;5002144;28;96987;-50
2022/06/30 07:56:01;;;;;;;3.20;3.00;;;;;;;26.33;45.96;101011.84;4985728;28;97002;-51
2022/06/30 07:58:26;;;;;;;2.70;2.60;;;;;;;26.39;45.88;101006.63;4997594;28;97217;-55
2022/06/30 08:00:51;;;;;;;3.20;2.73;;;;;;;26.48;45.80;101011.53;4998815;28;99095;-51
2022/06/30 08:03:17;;;;;;;2.80;2.70;;;;;;;26.55;45.66;101010.63;4993256;28;97118;-51
2022/06/30 08:05:42;;;;;;;3.27;3.00;;;;;;;26.60;45.55;101003.94;4998485;28;97103;-51
2022/06/30 08:08:08;;;;;;;2.50;2.40;;;;;;;26.67;45.50;101000.94;5001401;28;96987;-51
2022/06/30 08:10:33;;;;;;;3.13;2.93;;;;;;;26.76;45.42;101001.56;4997955;28;97607;-51
2022/06/30 08:12:59;;;;;;;2.70;2.60;;;;;;;26.84;45.34;100999.31;5004536;28;96905;-51
2022/06/30 08:15:24;;;;;;;3.00;2.77;;;;;;;26.92;45.14;100991.38;4997369;28;97150;-51
2022/06/30 08:17:49;;;;;;;3.37;3.07;;;;;;;26.98;45.10;100988.97;4997759;28;97029;-51
2022/06/30 08:20:15;;;;;;;2.90;2.77;;;;;;;27.01;44.87;100979.31;5001707;28;97736;-51
2022/06/30 08:22:40;;;;;;;2.83;2.63;;;;;;;27.07;45.01;100979.72;5000472;28;97044;-51
2022/06/30 08:25:06;;;;;;;3.17;2.83;;;;;;;27.18;44.82;100985.50;5005915;28;97058;-50
2022/06/30 08:27:31;;;;;;;3.27;3.07;;;;;;;27.24;44.87;100987.97;4996269;28;97379;-50
2022/06/30 08:29:57;;;;;;;3.37;2.60;;;;;;;27.25;44.55;100976.09;5000166;28;98657;-50
2022/06/30 08:32:22;;;;;;;3.10;2.90;;;;;;;27.32;44.52;100977.25;4999475;28;97115;-51
2022/06/30 08:34:48;;;;;;;3.17;2.97;;;;;;;27.40;44.52;100981.41;5008285;28;97133;-51
2022/06/30 08:37:14;;;;;;;3.00;2.90;;;;;;;27.53;44.64;100979.38;5005231;28;99133;-51
2022/06/30 08:42:25;;;;;;;3.73;3.50;;;;;;;27.79;44.05;100976.22;5002188;28;97112;-51
2022/06/30 08:47:39;;;;;;;3.13;2.83;;;;;;;27.98;43.91;100978.94;5000672;28;97284;-51
2022/06/30 08:50:08;;;;;;;3.40;3.20;;;;;;;28.12;43.73;100982.69;5002320;28;97371;-51
2022/06/30 08:52:44;;;;;;;3.87;3.57;;;;;;;28.23;43.37;100978.44;5003912;28;97118;-51
2022/06/30 08:55:10;;;;;;;5.23;3.40;;;;;;;28.22;43.24;100968.44;5004187;28;97497;-51
2022/06/30 08:57:37;;;;;;;3.20;3.00;;;;;;;28.26;43.31;100962.31;4987944;28;97100;-51
2022/06/30 09:00:03;;;;;;;3.17;2.97;;;;;;;28.35;43.21;100969.97;5005846;28;97461;-51
2022/06/30 09:02:30;;;;;;;3.67;3.37;;;;;;;28.45;43.22;100982.69;4997079;28;97293;-51
2022/06/30 09:04:55;;;;;;;3.10;2.90;;;;;;;28.57;43.00;100977.06;4999952;28;97120;-52
2022/06/30 09:07:21;;;;;;;3.50;3.20;;;;;;;28.73;43.07;100981.66;4990323;28;96988;-51
2022/06/30 09:09:46;;;;;;;4.23;3.20;;;;;;;28.84;42.80;100977.38;4997848;28;96959;-51
2022/06/30 09:12:16;;;;;;;3.70;3.40;;;;;;;28.96;42.41;100978.13;4998879;28;99502;-51
2022/06/30 09:14:45;;;;;;;3.90;3.60;;;;;;;29.00;42.30;100972.72;5004910;28;96872;-51
2022/06/30 09:17:16;;;;;;;4.17;3.60;;;;;;;29.06;42.41;100967.41;4997858;28;97138;-52
2022/06/30 09:19:51;;;;;;;3.20;3.00;;;;;;;29.21;42.53;100966.94;4993954;28;97256;-51
2022/06/30 09:22:17;;;;;;;3.83;3.47;;;;;;;29.40;42.18;100960.28;4995304;28;98205;-51
2022/06/30 09:24:43;;;;;;;3.80;3.60;;;;;;;29.54;42.11;100964.69;4980524;28;97232;-52
2022/06/30 09:27:20;;;;;;;2.90;2.70;;;;;;;29.56;41.39;100966.88;4995386;28;96940;-51
2022/06/30 09:29:51;;;;;;;3.23;3.03;;;;;;;29.68;41.58;100965.50;4995600;28;100647;-51
2022/06/30 09:32:17;;;;;;;3.00;2.80;;;;;;;29.82;41.71;100962.78;5000201;28;100414;-51
2022/06/30 09:34:43;;;;;;;3.93;3.63;;;;;;;29.96;41.15;100952.25;4998982;28;96845;-52
2022/06/30 09:37:18;;;;;;;3.77;3.47;;;;;;;30.01;41.25;100947.56;5003501;28;97109;-51
2022/06/30 09:39:44;;;;;;;3.73;3.50;;;;;;;30.03;41.30;100939.91;4999834;28;97341;-50
2022/06/30 09:42:10;;;;;;;3.40;2.80;;;;;;;30.15;41.06;100943.41;4996827;28;97741;-51
2022/06/30 09:44:35;;;;;;;3.10;3.00;;;;;;;30.27;41.06;100949.75;4989732;28;97163;-51
2022/06/30 09:47:04;;;;;;;3.20;3.00;;;;;;;30.40;41.08;100945.53;5001177;28;97180;-50
2022/06/30 09:49:30;;;;;;;3.73;3.43;;;;;;;30.60;40.80;100943.78;4996912;28;100995;-52
2022/06/30 09:51:55;;;;;;;3.27;3.07;;;;;;;30.80;40.26;100947.72;4998093;28;96969;-52
2022/06/30 09:54:21;;;;;;;4.00;3.70;;;;;;;30.97;40.09;100946.50;4992269;28;96948;-52
2022/06/30 09:57:19;;;;;;;3.43;3.23;;;;;;;31.09;37.98;100939.34;4997899;28;96963;-49
2022/06/30 09:59:44;;;;;;;3.90;3.60;;;;;;;31.08;39.83;100940.00;4963737;28;100309;-51
2022/06/30 10:02:11;;;;;;;3.63;3.33;;;;;;;31.05;40.18;100942.00;5000949;28;97479;-52
2022/06/30 10:04:56;;;;;;;3.50;3.27;;;;;;;31.20;39.38;100956.94;4990427;28;97136;-52
2022/06/30 10:07:21;;;;;;;3.20;3.00;;;;;;;31.36;39.91;100941.44;4983923;28;97293;-52
2022/06/30 10:09:49;;;;;;;3.97;3.77;;;;;;;31.40;39.71;100949.44;4996056;28;97380;-51
2022/06/30 10:12:17;;;;;;;4.07;3.77;;;;;;;31.51;39.35;100940.09;5001003;28;97405;-51
2022/06/30 10:14:44;;;;;;;3.90;3.60;;;;;;;31.57;39.36;100943.22;4996969;28;97271;-51
2022/06/30 10:17:10;;;;;;;3.60;3.40;;;;;;;31.49;39.53;100932.19;5001369;28;97555;-51
2022/06/30 10:19:35;;;;;;;3.30;3.10;;;;;;;31.38;39.45;100932.28;4999111;28;97942;-51
2022/06/30 10:22:01;;;;;;;3.47;3.27;;;;;;;31.31;39.61;100928.38;5006336;28;97099;-50
2022/06/30 10:24:27;;;;;;;3.40;3.20;;;;;;;31.40;39.73;100930.28;4996410;28;97751;-51
2022/06/30 10:27:12;;;;;;;3.60;3.40;;;;;;;31.58;39.44;100927.66;5001371;28;97235;-50
2022/06/30 10:29:42;;;;;;;3.43;3.13;;;;;;;31.78;39.08;100940.03;4998570;28;101526;-52
2022/06/30 10:32:25;;;;;;;3.90;3.60;;;;;;;31.90;38.55;100923.53;4997223;28;97484;-49
2022/06/30 10:34:59;;;;;;;3.27;3.07;;;;;;;32.05;38.74;100927.84;4999145;28;96959;-51
2022/06/30 10:38:03;;;;;;;4.17;3.63;;;;;;;32.18;38.47;100912.81;4996430;28;97111;-49
2022/06/30 10:40:49;;;;;;;2.90;2.80;;;;;;;32.24;38.22;100922.38;4926002;28;100627;-50
2022/06/30 10:43:16;;;;;;;3.50;3.30;;;;;;;32.28;38.17;100916.88;4999796;28;101491;-52
2022/06/30 10:46:03;;;;;;;3.07;2.90;;;;;;;32.31;37.76;100914.84;5002502;28;97165;-49
2022/06/30 10:49:08;;;;;;;3.63;3.43;;;;;;;32.33;36.80;100915.69;5000936;28;97069;-49
2022/06/30 10:51:33;;;;;;;3.67;3.40;;;;;;;32.38;38.04;100919.44;4960994;28;105009;-50
2022/06/30 10:53:59;;;;;;;3.80;3.60;;;;;;;32.42;38.07;100914.69;4978422;28;100225;-51
2022/06/30 10:56:53;;;;;;;4.07;3.80;;;;;;;32.31;36.88;100909.88;4996698;28;97106;-51
2022/06/30 10:59:36;;;;;;;3.80;3.50;;;;;;;32.22;37.39;100902.34;5002193;28;96973;-51
2022/06/30 11:02:10;;;;;;;3.63;3.33;;;;;;;32.21;37.67;100897.28;4996858;28;101630;-50
2022/06/30 11:04:37;;;;;;;3.90;3.70;;;;;;;32.31;37.81;100897.75;5006413;28;102715;-49
2022/06/30 11:07:27;;;;;;;3.83;3.40;;;;;;;32.40;37.43;100906.03;4999209;28;97395;-49
2022/06/30 11:09:54;;;;;;;3.30;3.10;;;;;;;32.55;37.44;100906.72;5004370;28;96998;-50
2022/06/30 11:12:29;;;;;;;4.20;3.90;;;;;;;32.62;37.08;100897.81;5002009;28;97523;-50
2022/06/30 11:14:56;;;;;;;3.50;3.03;;;;;;;32.69;37.50;100890.25;5000569;28;97172;-50
2022/06/30 11:17:23;;;;;;;3.70;3.40;;;;;;;32.61;37.43;100892.75;5001282;28;97405;-51
2022/06/30 11:20:10;;;;;;;3.53;3.33;;;;;;;32.57;37.03;100879.03;4994821;28;97309;-51
2022/06/30 11:22:36;;;;;;;4.03;3.70;;;;;;;32.71;37.05;100884.66;5001437;28;101965;-50
2022/06/30 11:25:08;;;;;;;3.17;2.97;;;;;;;32.72;36.74;100888.97;5001499;28;97300;-50
2022/06/30 11:27:36;;;;;;;4.37;3.80;;;;;;;32.81;37.10;100887.97;5001662;28;97180;-50
2022/06/30 11:30:11;;;;;;;3.43;3.23;;;;;;;32.95;36.72;100885.72;5004666;28;97312;-51
2022/06/30 11:32:38;;;;;;;3.03;2.83;;;;;;;33.09;36.75;100886.38;5002219;28;97125;-51
2022/06/30 11:35:04;;;;;;;3.63;3.33;;;;;;;33.22;36.57;100874.81;5004741;28;97651;-50
2022/06/30 11:37:33;;;;;;;3.53;3.33;;;;;;;33.36;36.06;100877.53;4999818;28;97353;-51
2022/06/30 11:40:02;;;;;;;2.87;2.67;;;;;;;33.43;35.97;100879.28;5002728;28;96994;-50
2022/06/30 11:42:27;;;;;;;2.63;2.53;;;;;;;33.52;36.07;100883.97;5000280;28;97488;-50
2022/06/30 11:44:53;;;;;;;3.80;3.60;;;;;;;33.59;35.87;100879.25;4998151;28;97657;-50